createdAt,value
2022-07-31T00:00:18.641Z,85.58
2022-07-31T00:01:18.634Z,85.78
2022-07-31T00:02:18.646Z,85.58
2022-07-31T00:03:18.686Z,85.31
2022-07-31T00:04:18.628Z,85.38
2022-07-31T00:05:18.644Z,85.52
2022-07-31T00:06:18.606Z,85.22
2022-07-31T00:07:18.633Z,84.31
2022-07-31T00:08:18.619Z,84.51
2022-07-31T00:09:52.915Z,84.61
2022-07-31T00:10:19.554Z,84.81
2022-07-31T00:11:18.565Z,84.67
2022-07-31T00:12:18.572Z,84.41
2022-07-31T00:13:18.565Z,84.07
2022-07-31T00:14:19.555Z,83.91
2022-07-31T00:15:18.542Z,83.30
2022-07-31T00:16:18.535Z,84.21
2022-07-31T00:17:18.522Z,84.51
2022-07-31T00:18:18.514Z,85.02
2022-07-31T00:19:18.521Z,84.61
2022-07-31T00:20:18.498Z,84.91
2022-07-31T00:21:18.498Z,84.61
2022-07-31T00:22:18.477Z,84.11
2022-07-31T00:23:18.995Z,84.27
2022-07-31T00:24:18.507Z,84.88
2022-07-31T00:25:18.470Z,84.67
2022-07-31T00:26:18.450Z,85.48
2022-07-31T00:27:18.454Z,85.22
2022-07-31T00:28:18.442Z,85.38
2022-07-31T00:29:18.444Z,85.28
2022-07-31T00:30:18.439Z,85.48
2022-07-31T00:31:18.424Z,85.28
2022-07-31T00:32:18.415Z,84.97
2022-07-31T00:33:18.415Z,84.88
2022-07-31T00:34:18.398Z,84.77
2022-07-31T00:35:18.456Z,85.28
2022-07-31T00:36:18.378Z,84.71
2022-07-31T00:37:18.369Z,85.28
2022-07-31T00:38:26.878Z,85.68
2022-07-31T00:39:20.369Z,85.78
2022-07-31T00:40:18.363Z,86.18
2022-07-31T00:41:18.373Z,86.18
2022-07-31T00:42:18.342Z,86.99
2022-07-31T00:43:18.340Z,85.08
2022-07-31T00:44:18.485Z,85.68
2022-07-31T00:45:18.333Z,84.88
2022-07-31T00:46:19.398Z,85.08
2022-07-31T00:47:18.305Z,84.97
2022-07-31T00:48:19.297Z,85.08
2022-07-31T00:49:18.348Z,85.38
2022-07-31T00:50:18.289Z,85.78
2022-07-31T00:51:18.274Z,86.49
2022-07-31T00:52:18.254Z,86.99
2022-07-31T00:53:18.262Z,86.49
2022-07-31T00:54:22.584Z,86.69
2022-07-31T00:55:18.257Z,86.79
2022-07-31T00:56:18.262Z,86.79
2022-07-31T00:57:18.238Z,85.88
2022-07-31T00:58:18.221Z,85.68
2022-07-31T00:59:24.848Z,84.94
2022-07-31T01:00:19.215Z,84.63
2022-07-31T01:01:18.232Z,85.58
2022-07-31T01:02:18.202Z,85.84
2022-07-31T01:03:18.193Z,85.03
2022-07-31T01:04:18.182Z,84.94
2022-07-31T01:05:18.178Z,85.14
2022-07-31T01:06:18.174Z,85.34
2022-07-31T01:07:18.165Z,84.94
2022-07-31T01:08:18.155Z,85.64
2022-07-31T01:09:18.153Z,85.94
2022-07-31T01:10:18.144Z,85.24
2022-07-31T01:11:18.134Z,85.64
2022-07-31T01:12:18.127Z,85.94
2022-07-31T01:13:18.114Z,84.83
2022-07-31T01:14:18.109Z,85.48
2022-07-31T01:15:18.101Z,85.03
2022-07-31T01:16:18.099Z,85.03
2022-07-31T01:17:18.107Z,84.33
2022-07-31T01:18:18.098Z,85.64
2022-07-31T01:19:18.078Z,85.68
2022-07-31T01:20:18.073Z,85.84
2022-07-31T01:21:18.068Z,85.64
2022-07-31T01:22:34.031Z,86.35
2022-07-31T01:23:19.061Z,86.85
2022-07-31T01:24:18.050Z,86.75
2022-07-31T01:25:18.042Z,86.44
2022-07-31T01:26:19.492Z,85.94
2022-07-31T01:27:18.026Z,85.54
2022-07-31T01:28:18.021Z,85.60
2022-07-31T01:29:18.010Z,86.30
2022-07-31T01:30:17.997Z,86.85
2022-07-31T01:31:26.572Z,86.61
2022-07-31T01:32:18.995Z,86.35
2022-07-31T01:33:18.996Z,86.85
2022-07-31T01:34:17.975Z,87.55
2022-07-31T01:35:17.969Z,86.75
2022-07-31T01:36:17.950Z,87.15
2022-07-31T01:37:17.954Z,86.55
2022-07-31T01:38:17.958Z,87.05
2022-07-31T01:39:17.946Z,86.95
2022-07-31T01:40:17.929Z,85.64
2022-07-31T01:41:17.922Z,84.69
2022-07-31T01:42:17.917Z,85.60
2022-07-31T01:43:17.921Z,87.41
2022-07-31T01:44:17.912Z,87.11
2022-07-31T01:45:17.888Z,87.85
2022-07-31T01:46:17.879Z,87.55
2022-07-31T01:47:17.879Z,87.80
2022-07-31T01:48:17.870Z,88.00
2022-07-31T01:49:17.920Z,88.10
2022-07-31T01:50:43.127Z,88.00
2022-07-31T01:51:18.846Z,87.60
2022-07-31T01:52:17.845Z,87.25
2022-07-31T01:53:17.858Z,86.71
2022-07-31T01:54:17.825Z,86.71
2022-07-31T01:55:17.830Z,86.91
2022-07-31T01:56:17.829Z,86.51
2022-07-31T01:57:18.711Z,86.51
2022-07-31T01:58:17.797Z,85.84
2022-07-31T01:59:20.728Z,85.90
2022-07-31T02:00:18.821Z,85.60
2022-07-31T02:01:18.821Z,86.71
2022-07-31T02:02:18.357Z,86.30
2022-07-31T02:03:17.769Z,86.75
2022-07-31T02:04:18.765Z,86.61
2022-07-31T02:05:17.762Z,86.65
2022-07-31T02:06:17.780Z,86.51
2022-07-31T02:07:17.733Z,86.51
2022-07-31T02:08:17.729Z,85.84
2022-07-31T02:09:17.736Z,85.80
2022-07-31T02:10:17.720Z,85.60
2022-07-31T02:11:17.730Z,86.51
2022-07-31T02:12:17.705Z,86.35
2022-07-31T02:13:18.701Z,86.51
2022-07-31T02:14:17.689Z,86.21
2022-07-31T02:15:17.692Z,86.61
2022-07-31T02:16:17.684Z,85.50
2022-07-31T02:17:22.621Z,85.50
2022-07-31T02:18:18.670Z,86.55
2022-07-31T02:19:17.657Z,85.70
2022-07-31T02:20:17.671Z,86.10
2022-07-31T02:21:17.650Z,84.89
2022-07-31T02:22:17.637Z,85.40
2022-07-31T02:23:17.633Z,85.20
2022-07-31T02:24:17.622Z,84.49
2022-07-31T02:25:17.642Z,85.40
2022-07-31T02:26:17.610Z,85.30
2022-07-31T02:27:58.065Z,85.50
2022-07-31T02:28:19.602Z,85.10
2022-07-31T02:29:19.586Z,85.40
2022-07-31T02:30:17.750Z,85.34
2022-07-31T02:31:17.602Z,84.94
2022-07-31T02:32:17.590Z,86.85
2022-07-31T02:33:17.580Z,86.95
2022-07-31T02:34:17.554Z,86.58
2022-07-31T02:35:17.553Z,86.89
2022-07-31T02:36:17.545Z,86.89
2022-07-31T02:37:17.562Z,86.69
2022-07-31T02:38:22.830Z,86.89
2022-07-31T02:39:18.518Z,86.18
2022-07-31T02:40:17.513Z,85.68
2022-07-31T02:41:17.509Z,85.72
2022-07-31T02:42:17.502Z,86.63
2022-07-31T02:43:17.490Z,86.83
2022-07-31T02:44:17.489Z,86.33
2022-07-31T02:45:18.482Z,85.42
2022-07-31T02:46:17.485Z,86.53
2022-07-31T02:47:17.466Z,86.33
2022-07-31T02:48:17.467Z,87.23
2022-07-31T02:49:17.539Z,87.23
2022-07-31T02:50:18.169Z,87.63
2022-07-31T02:51:17.434Z,86.57
2022-07-31T02:52:17.429Z,86.87
2022-07-31T02:53:17.439Z,87.18
2022-07-31T02:54:17.429Z,87.27
2022-07-31T02:55:17.405Z,87.68
2022-07-31T02:56:17.389Z,87.68
2022-07-31T02:57:17.400Z,87.58
2022-07-31T02:58:17.406Z,87.48
2022-07-31T02:59:17.377Z,87.58
2022-07-31T03:00:17.382Z,87.58
2022-07-31T03:01:17.410Z,87.18
2022-07-31T03:02:17.362Z,86.91
2022-07-31T03:03:17.358Z,87.18
2022-07-31T03:04:17.363Z,87.52
2022-07-31T03:05:17.341Z,87.21
2022-07-31T03:06:17.334Z,88.53
2022-07-31T03:07:17.328Z,89.34
2022-07-31T03:08:17.321Z,87.92
2022-07-31T03:09:17.322Z,87.52
2022-07-31T03:10:17.297Z,87.92
2022-07-31T03:11:17.290Z,87.82
2022-07-31T03:12:17.290Z,88.23
2022-07-31T03:13:17.278Z,88.83
2022-07-31T03:14:17.289Z,89.23
2022-07-31T03:15:17.267Z,88.32
2022-07-31T03:16:17.262Z,87.82
2022-07-31T03:17:17.253Z,87.92
2022-07-31T03:18:17.237Z,87.92
2022-07-31T03:19:17.250Z,88.02
2022-07-31T03:20:17.233Z,87.72
2022-07-31T03:21:17.226Z,87.41
2022-07-31T03:22:17.219Z,88.23
2022-07-31T03:23:17.214Z,88.12
2022-07-31T03:24:17.189Z,87.92
2022-07-31T03:25:21.366Z,89.03
2022-07-31T03:26:17.193Z,89.03
2022-07-31T03:27:17.180Z,89.03
2022-07-31T03:28:17.169Z,89.48
2022-07-31T03:29:41.628Z,89.23
2022-07-31T03:30:18.178Z,89.03
2022-07-31T03:31:17.157Z,89.23
2022-07-31T03:32:17.142Z,89.28
2022-07-31T03:33:17.137Z,89.37
2022-07-31T03:34:17.135Z,89.37
2022-07-31T03:35:17.122Z,89.03
2022-07-31T03:36:17.126Z,89.48
2022-07-31T03:37:17.110Z,89.58
2022-07-31T03:38:38.987Z,89.58
2022-07-31T03:39:18.082Z,89.28
2022-07-31T03:40:17.092Z,89.37
2022-07-31T03:41:17.081Z,89.48
2022-07-31T03:42:19.248Z,89.68
2022-07-31T03:43:17.070Z,89.88
2022-07-31T03:44:17.057Z,89.48
2022-07-31T03:45:17.063Z,89.12
2022-07-31T03:46:17.072Z,89.28
2022-07-31T03:47:17.025Z,89.52
2022-07-31T03:48:17.043Z,89.28
2022-07-31T03:49:17.111Z,89.62
2022-07-31T03:50:17.001Z,89.58
2022-07-31T03:51:18.005Z,90.03
2022-07-31T03:52:17.009Z,90.43
2022-07-31T03:53:17.013Z,90.12
2022-07-31T03:54:16.997Z,90.33
2022-07-31T03:55:16.969Z,90.03
2022-07-31T03:56:16.974Z,90.23
2022-07-31T03:57:16.965Z,89.92
2022-07-31T03:58:16.954Z,90.12
2022-07-31T03:59:17.015Z,90.12
2022-07-31T04:00:17.915Z,90.03
2022-07-31T04:01:16.991Z,89.83
2022-07-31T04:02:19.063Z,89.52
2022-07-31T04:03:16.913Z,89.42
2022-07-31T04:04:16.949Z,89.42
2022-07-31T04:05:16.917Z,89.56
2022-07-31T04:06:16.893Z,88.65
2022-07-31T04:07:16.894Z,88.10
2022-07-31T04:08:16.886Z,88.25
2022-07-31T04:09:19.079Z,88.35
2022-07-31T04:10:16.873Z,88.45
2022-07-31T04:11:16.861Z,89.46
2022-07-31T04:12:17.485Z,89.56
2022-07-31T04:13:16.849Z,88.65
2022-07-31T04:14:16.856Z,88.45
2022-07-31T04:15:16.829Z,89.36
2022-07-31T04:16:16.858Z,89.46
2022-07-31T04:17:16.834Z,89.06
2022-07-31T04:18:16.815Z,89.56
2022-07-31T04:19:16.806Z,89.26
2022-07-31T04:20:16.785Z,88.85
2022-07-31T04:21:16.789Z,89.56
2022-07-31T04:22:16.807Z,88.75
2022-07-31T04:23:16.775Z,88.04
2022-07-31T04:24:16.776Z,88.04
2022-07-31T04:25:16.753Z,88.04
2022-07-31T04:26:20.109Z,88.25
2022-07-31T04:27:16.750Z,88.35
2022-07-31T04:28:16.735Z,88.25
2022-07-31T04:29:16.748Z,89.16
2022-07-31T04:30:16.722Z,89.56
2022-07-31T04:31:16.722Z,89.56
2022-07-31T04:32:16.698Z,89.40
2022-07-31T04:33:16.702Z,89.81
2022-07-31T04:34:16.730Z,89.61
2022-07-31T04:35:16.688Z,89.36
2022-07-31T04:36:29.620Z,89.40
2022-07-31T04:37:17.677Z,88.70
2022-07-31T04:38:16.662Z,87.95
2022-07-31T04:39:16.669Z,87.99
2022-07-31T04:40:16.651Z,88.19
2022-07-31T04:41:16.661Z,88.25
2022-07-31T04:42:16.634Z,88.19
2022-07-31T04:43:16.625Z,87.95
2022-07-31T04:44:16.617Z,88.25
2022-07-31T04:45:16.605Z,88.04
2022-07-31T04:46:17.667Z,88.19
2022-07-31T04:47:16.596Z,88.15
2022-07-31T04:48:16.580Z,87.44
2022-07-31T04:49:16.683Z,87.24
2022-07-31T04:50:16.590Z,88.25
2022-07-31T04:51:16.589Z,87.64
2022-07-31T04:52:16.591Z,87.74
2022-07-31T04:53:16.543Z,87.54
2022-07-31T04:54:16.561Z,87.44
2022-07-31T04:55:16.561Z,88.45
2022-07-31T04:56:16.515Z,87.95
2022-07-31T04:57:21.550Z,87.95
2022-07-31T04:58:18.514Z,89.36
2022-07-31T04:59:16.501Z,89.40
2022-07-31T05:00:16.500Z,89.26
2022-07-31T05:01:16.584Z,89.50
2022-07-31T05:02:16.477Z,89.36
2022-07-31T05:03:16.473Z,89.56
2022-07-31T05:04:16.477Z,89.36
2022-07-31T05:05:16.456Z,89.52
2022-07-31T05:06:16.468Z,89.22
2022-07-31T05:07:16.442Z,88.41
2022-07-31T05:08:16.422Z,88.41
2022-07-31T05:09:18.985Z,88.61
2022-07-31T05:10:17.429Z,87.90
2022-07-31T05:11:16.418Z,87.70
2022-07-31T05:12:16.409Z,87.81
2022-07-31T05:13:16.705Z,87.46
2022-07-31T05:14:16.392Z,87.36
2022-07-31T05:15:16.375Z,86.45
2022-07-31T05:16:16.374Z,86.95
2022-07-31T05:17:16.374Z,87.36
2022-07-31T05:18:16.362Z,87.36
2022-07-31T05:19:16.381Z,87.26
2022-07-31T05:20:16.350Z,87.36
2022-07-31T05:21:16.342Z,87.32
2022-07-31T05:22:16.347Z,87.52
2022-07-31T05:23:16.329Z,87.21
2022-07-31T05:24:16.329Z,87.48
2022-07-31T05:25:17.316Z,87.48
2022-07-31T05:26:16.298Z,87.98
2022-07-31T05:27:16.293Z,87.94
2022-07-31T05:28:16.290Z,87.63
2022-07-31T05:29:16.297Z,87.13
2022-07-31T05:30:16.310Z,87.09
2022-07-31T05:31:16.265Z,86.04
2022-07-31T05:32:16.730Z,84.83
2022-07-31T05:33:16.319Z,84.63
2022-07-31T05:34:16.245Z,84.80
2022-07-31T05:35:16.254Z,84.49
2022-07-31T05:36:16.234Z,84.85
2022-07-31T05:37:16.226Z,84.75
2022-07-31T05:38:16.222Z,84.51
2022-07-31T05:39:16.209Z,84.67
2022-07-31T05:40:16.208Z,85.38
2022-07-31T05:41:16.216Z,83.12
2022-07-31T05:42:16.190Z,82.92
2022-07-31T05:43:16.189Z,82.28
2022-07-31T05:44:16.180Z,81.27
2022-07-31T05:45:16.178Z,81.68
2022-07-31T05:46:16.191Z,81.58
2022-07-31T05:47:16.160Z,81.38
2022-07-31T05:48:16.154Z,81.58
2022-07-31T05:49:16.264Z,81.18
2022-07-31T05:50:16.141Z,80.77
2022-07-31T05:51:16.132Z,80.77
2022-07-31T05:52:16.164Z,79.63
2022-07-31T05:53:16.129Z,80.43
2022-07-31T05:54:16.114Z,79.63
2022-07-31T05:55:16.114Z,79.23
2022-07-31T05:56:16.122Z,80.63
2022-07-31T05:57:33.465Z,80.68
2022-07-31T05:58:17.217Z,79.57
2022-07-31T05:59:16.077Z,78.93
2022-07-31T06:00:16.069Z,79.09
2022-07-31T06:01:16.130Z,79.53
2022-07-31T06:02:16.062Z,79.23
2022-07-31T06:03:16.068Z,79.73
2022-07-31T06:04:16.052Z,78.03
2022-07-31T06:05:16.045Z,77.02
2022-07-31T06:06:16.956Z,76.42
2022-07-31T06:07:16.058Z,76.92
2022-07-31T06:08:16.034Z,77.62
2022-07-31T06:09:16.007Z,77.32
2022-07-31T06:10:16.006Z,77.52
2022-07-31T06:11:16.009Z,77.62
2022-07-31T06:12:15.993Z,77.92
2022-07-31T06:13:15.985Z,78.22
2022-07-31T06:14:15.984Z,78.42
2022-07-31T06:15:15.973Z,78.19
2022-07-31T06:16:15.988Z,78.53
2022-07-31T06:17:15.969Z,78.97
2022-07-31T06:18:15.950Z,79.47
2022-07-31T06:19:15.944Z,78.77
2022-07-31T06:20:15.942Z,78.46
2022-07-31T06:22:01.185Z,79.23
2022-07-31T06:23:02.312Z,77.83
2022-07-31T06:24:03.297Z,76.42
2022-07-31T06:25:02.284Z,75.51
2022-07-31T06:26:02.612Z,76.52
2022-07-31T06:27:02.271Z,75.92
2022-07-31T06:28:02.332Z,76.82
2022-07-31T06:29:02.253Z,77.02
2022-07-31T06:30:02.250Z,75.98
2022-07-31T06:31:02.261Z,75.95
2022-07-31T06:32:02.465Z,75.74
2022-07-31T06:33:08.206Z,75.21
2022-07-31T06:34:03.222Z,75.91
2022-07-31T06:35:02.225Z,74.60
2022-07-31T06:36:02.215Z,74.71
2022-07-31T06:37:02.198Z,75.17
2022-07-31T06:38:02.385Z,74.97
2022-07-31T06:39:02.189Z,75.67
2022-07-31T06:40:02.189Z,75.37
2022-07-31T06:41:02.189Z,75.47
2022-07-31T06:42:02.493Z,75.07
2022-07-31T06:43:06.568Z,74.97
2022-07-31T06:44:03.157Z,75.57
2022-07-31T06:45:02.151Z,74.63
2022-07-31T06:46:02.152Z,73.30
2022-07-31T06:47:02.125Z,72.89
2022-07-31T06:48:02.134Z,71.80
2022-07-31T06:49:06.730Z,71.59
2022-07-31T06:50:04.112Z,71.19
2022-07-31T06:51:29.907Z,71.36
2022-07-31T06:52:05.449Z,71.26
2022-07-31T06:53:02.090Z,70.46
2022-07-31T06:54:02.081Z,70.23
2022-07-31T06:55:02.078Z,70.49
2022-07-31T06:56:02.049Z,69.19
2022-07-31T06:57:02.084Z,69.56
2022-07-31T06:58:02.064Z,68.93
2022-07-31T06:59:02.044Z,69.09
2022-07-31T07:00:05.673Z,67.86
2022-07-31T07:01:03.099Z,66.33
2022-07-31T07:02:02.443Z,67.23
2022-07-31T07:03:02.022Z,66.03
2022-07-31T07:04:02.005Z,62.34
2022-07-31T07:05:06.702Z,64.20
2022-07-31T07:06:03.000Z,64.53
2022-07-31T07:07:01.989Z,65.03
2022-07-31T07:08:02.003Z,66.36
2022-07-31T07:09:01.990Z,66.29
2022-07-31T07:10:01.980Z,66.66
2022-07-31T07:11:01.957Z,65.23
2022-07-31T07:12:02.081Z,64.80
2022-07-31T07:13:01.951Z,64.20
2022-07-31T07:14:01.929Z,64.27
2022-07-31T07:15:01.933Z,64.27
2022-07-31T07:16:01.926Z,63.04
2022-07-31T07:17:01.934Z,62.64
2022-07-31T07:18:01.910Z,62.41
2022-07-31T07:19:01.917Z,61.19
2022-07-31T07:20:01.901Z,61.49
2022-07-31T07:21:01.887Z,61.25
2022-07-31T07:22:02.331Z,62.35
2022-07-31T07:23:01.884Z,62.52
2022-07-31T07:24:01.871Z,58.69
2022-07-31T07:25:01.865Z,57.19
2022-07-31T07:26:01.857Z,58.58
2022-07-31T07:27:01.868Z,57.71
2022-07-31T07:28:01.844Z,58.39
2022-07-31T07:29:01.839Z,57.39
2022-07-31T07:30:01.831Z,58.69
2022-07-31T07:31:01.826Z,56.77
2022-07-31T07:32:02.060Z,56.37
2022-07-31T07:33:01.814Z,55.30
2022-07-31T07:34:01.811Z,56.49
2022-07-31T07:35:01.795Z,57.19
2022-07-31T07:36:01.806Z,56.52
2022-07-31T07:37:01.804Z,57.84
2022-07-31T07:38:01.781Z,57.71
2022-07-31T07:39:01.789Z,57.42
2022-07-31T07:40:03.907Z,57.69
2022-07-31T07:41:01.768Z,55.05
2022-07-31T07:42:02.233Z,56.47
2022-07-31T07:43:03.327Z,54.75
2022-07-31T07:44:02.732Z,53.56
2022-07-31T07:45:06.463Z,54.75
2022-07-31T07:46:02.735Z,57.36
2022-07-31T07:47:01.736Z,56.07
2022-07-31T07:48:06.761Z,56.79
2022-07-31T07:49:02.783Z,57.19
2022-07-31T07:50:01.705Z,57.79
2022-07-31T07:51:01.697Z,56.99
2022-07-31T07:52:01.700Z,57.59
2022-07-31T07:53:01.688Z,57.36
2022-07-31T07:54:01.678Z,57.86
2022-07-31T07:55:01.668Z,57.46
2022-07-31T07:56:01.672Z,58.06
2022-07-31T07:57:01.670Z,57.99
2022-07-31T07:58:01.653Z,57.32
2022-07-31T07:59:01.656Z,58.61
2022-07-31T08:00:02.640Z,58.22
2022-07-31T08:01:01.788Z,58.24
2022-07-31T08:02:02.106Z,58.74
2022-07-31T08:03:02.759Z,59.34
2022-07-31T08:04:02.634Z,59.17
2022-07-31T08:05:01.604Z,58.76
2022-07-31T08:06:01.605Z,59.59
2022-07-31T08:07:01.605Z,60.46
2022-07-31T08:08:01.597Z,60.36
2022-07-31T08:09:01.581Z,60.86
2022-07-31T08:10:01.588Z,59.91
2022-07-31T08:11:01.582Z,59.61
2022-07-31T08:12:01.776Z,57.39
2022-07-31T08:13:01.562Z,56.45
2022-07-31T08:14:01.557Z,57.87
2022-07-31T08:15:01.547Z,57.77
2022-07-31T08:16:01.552Z,57.15
2022-07-31T08:17:01.528Z,57.94
2022-07-31T08:18:01.521Z,57.02
2022-07-31T08:19:01.519Z,57.56
2022-07-31T08:20:01.514Z,54.78
2022-07-31T08:21:01.509Z,53.06
2022-07-31T08:22:01.908Z,53.66
2022-07-31T08:23:01.500Z,52.44
2022-07-31T08:24:01.468Z,54.23
2022-07-31T08:25:05.890Z,52.51
2022-07-31T08:26:01.498Z,52.19
2022-07-31T08:27:01.453Z,51.70
2022-07-31T08:28:01.452Z,51.03
2022-07-31T08:29:01.457Z,50.93
2022-07-31T08:30:02.506Z,52.72
2022-07-31T08:31:01.436Z,51.54
2022-07-31T08:32:01.800Z,52.02
2022-07-31T08:33:01.433Z,53.11
2022-07-31T08:34:01.420Z,51.82
2022-07-31T08:35:01.409Z,52.94
2022-07-31T08:36:01.405Z,53.23
2022-07-31T08:37:52.403Z,52.94
2022-07-31T08:38:04.777Z,52.74
2022-07-31T08:39:01.372Z,54.13
2022-07-31T08:40:01.384Z,53.53
2022-07-31T08:41:01.364Z,52.94
2022-07-31T08:42:01.656Z,53.63
2022-07-31T08:43:01.809Z,53.04
2022-07-31T08:44:04.488Z,53.23
2022-07-31T08:45:02.337Z,53.56
2022-07-31T08:46:01.323Z,52.37
2022-07-31T08:47:01.336Z,52.37
2022-07-31T08:48:01.312Z,53.19
2022-07-31T08:49:01.426Z,53.91
2022-07-31T08:50:01.305Z,54.53
2022-07-31T08:51:01.300Z,54.43
2022-07-31T08:52:01.430Z,53.94
2022-07-31T08:53:01.276Z,54.03
2022-07-31T08:54:01.264Z,54.24
2022-07-31T08:55:01.266Z,55.60
2022-07-31T08:56:01.260Z,53.51
2022-07-31T08:57:01.364Z,52.89
2022-07-31T08:58:01.268Z,52.07
2022-07-31T08:59:01.242Z,52.07
2022-07-31T09:00:01.232Z,53.16
2022-07-31T09:01:01.288Z,53.06
2022-07-31T09:02:01.446Z,51.25
2022-07-31T09:03:01.223Z,50.26
2022-07-31T09:04:01.200Z,51.92
2022-07-31T09:05:01.209Z,51.10
2022-07-31T09:06:01.191Z,51.82
2022-07-31T09:07:01.311Z,50.63
2022-07-31T09:08:01.176Z,51.62
2022-07-31T09:09:01.212Z,51.92
2022-07-31T09:10:01.152Z,51.12
2022-07-31T09:11:01.168Z,52.00
2022-07-31T09:12:01.148Z,51.57
2022-07-31T09:13:01.145Z,51.40
2022-07-31T09:14:01.772Z,52.79
2022-07-31T09:15:01.134Z,51.12
2022-07-31T09:16:01.120Z,50.70
2022-07-31T09:17:01.296Z,50.70
2022-07-31T09:18:01.115Z,50.90
2022-07-31T09:19:01.131Z,51.60
2022-07-31T09:20:01.107Z,51.23
2022-07-31T09:21:01.998Z,52.22
2022-07-31T09:22:01.079Z,52.02
2022-07-31T09:23:01.075Z,51.23
2022-07-31T09:24:01.067Z,52.22
2022-07-31T09:25:01.075Z,52.67
2022-07-31T09:26:01.056Z,52.47
2022-07-31T09:27:01.288Z,53.23
2022-07-31T09:28:01.045Z,53.23
2022-07-31T09:29:01.065Z,53.06
2022-07-31T09:30:01.029Z,53.14
2022-07-31T09:31:01.021Z,52.64
2022-07-31T09:32:01.019Z,52.22
2022-07-31T09:33:01.014Z,51.79
2022-07-31T09:34:01.031Z,52.39
2022-07-31T09:35:00.996Z,52.96
2022-07-31T09:36:00.986Z,51.05
2022-07-31T09:37:01.090Z,50.93
2022-07-31T09:38:00.973Z,51.70
2022-07-31T09:39:04.148Z,50.51
2022-07-31T09:40:00.967Z,52.44
2022-07-31T09:41:00.956Z,49.99
2022-07-31T09:42:17.023Z,48.63
2022-07-31T09:43:03.041Z,47.09
2022-07-31T09:44:00.967Z,45.98
2022-07-31T09:45:00.931Z,43.79
2022-07-31T09:46:00.923Z,44.29
2022-07-31T09:47:01.010Z,44.19
2022-07-31T09:48:00.916Z,44.78
2022-07-31T09:49:00.970Z,44.29
2022-07-31T09:50:00.892Z,43.30
2022-07-31T09:51:00.895Z,43.91
2022-07-31T09:52:00.915Z,43.74
2022-07-31T09:53:00.893Z,44.06
2022-07-31T09:54:00.876Z,44.27
2022-07-31T09:55:00.868Z,45.20
2022-07-31T09:56:00.860Z,46.44
2022-07-31T09:57:01.026Z,44.60
2022-07-31T09:58:00.858Z,43.55
2022-07-31T09:59:00.852Z,42.33
2022-07-31T10:00:00.871Z,41.14
2022-07-31T10:01:00.863Z,40.25
2022-07-31T10:02:00.823Z,40.41
2022-07-31T10:03:00.819Z,40.01
2022-07-31T10:04:00.813Z,38.74
2022-07-31T10:05:00.828Z,38.46
2022-07-31T10:06:00.807Z,40.25
2022-07-31T10:07:00.804Z,40.17
2022-07-31T10:08:00.790Z,41.17
2022-07-31T10:09:00.787Z,41.27
2022-07-31T10:10:00.778Z,42.22
2022-07-31T10:11:00.783Z,42.36
2022-07-31T10:12:00.760Z,44.98
2022-07-31T10:13:00.755Z,44.64
2022-07-31T10:14:00.747Z,44.34
2022-07-31T10:15:00.739Z,45.05
2022-07-31T10:16:00.796Z,46.04
2022-07-31T10:17:00.951Z,46.51
2022-07-31T10:18:00.718Z,44.29
2022-07-31T10:19:01.265Z,44.10
2022-07-31T10:20:00.711Z,45.50
2022-07-31T10:21:00.711Z,44.54
2022-07-31T10:22:00.706Z,45.64
2022-07-31T10:23:00.700Z,44.24
2022-07-31T10:24:00.678Z,44.47
2022-07-31T10:25:00.675Z,42.97
2022-07-31T10:26:00.674Z,42.24
2022-07-31T10:27:10.894Z,42.02
2022-07-31T10:28:02.659Z,42.61
2022-07-31T10:29:00.651Z,40.13
2022-07-31T10:30:00.643Z,40.13
2022-07-31T10:31:00.653Z,41.45
2022-07-31T10:32:00.640Z,41.45
2022-07-31T10:33:00.638Z,41.77
2022-07-31T10:34:00.626Z,42.79
2022-07-31T10:35:00.621Z,44.43
2022-07-31T10:36:00.619Z,44.04
2022-07-31T10:37:00.623Z,44.95
2022-07-31T10:38:00.599Z,46.04
2022-07-31T10:39:00.586Z,45.67
2022-07-31T10:40:00.586Z,43.88
2022-07-31T10:41:00.590Z,44.40
2022-07-31T10:42:00.565Z,45.84
2022-07-31T10:43:00.566Z,43.84
2022-07-31T10:44:00.561Z,44.29
2022-07-31T10:45:00.557Z,42.69
2022-07-31T10:46:00.534Z,42.79
2022-07-31T10:47:00.544Z,41.99
2022-07-31T10:48:00.526Z,41.11
2022-07-31T10:49:00.565Z,41.25
2022-07-31T10:50:00.520Z,38.78
2022-07-31T10:51:00.506Z,38.66
2022-07-31T10:52:01.509Z,38.62
2022-07-31T10:53:00.815Z,37.31
2022-07-31T10:54:01.497Z,37.74
2022-07-31T10:55:00.490Z,37.07
2022-07-31T10:56:00.482Z,38.74
2022-07-31T10:57:00.582Z,38.68
2022-07-31T10:58:00.467Z,39.58
2022-07-31T10:59:00.469Z,39.90
2022-07-31T11:00:00.437Z,39.72
2022-07-31T11:01:00.454Z,41.00
2022-07-31T11:02:00.524Z,39.84
2022-07-31T11:03:00.434Z,41.22
2022-07-31T11:04:00.426Z,40.13
2022-07-31T11:05:00.422Z,39.72
2022-07-31T11:06:02.548Z,40.00
2022-07-31T11:07:00.410Z,39.54
2022-07-31T11:08:00.431Z,40.47
2022-07-31T11:09:00.402Z,41.49
2022-07-31T11:10:00.389Z,41.00
2022-07-31T11:11:00.397Z,42.10
2022-07-31T11:12:00.385Z,40.78
2022-07-31T11:13:00.394Z,41.22
2022-07-31T11:14:00.367Z,40.82
2022-07-31T11:15:00.362Z,40.03
2022-07-31T11:16:00.353Z,40.84
2022-07-31T11:17:00.349Z,40.08
2022-07-31T11:18:21.122Z,40.00
2022-07-31T11:19:01.364Z,40.94
2022-07-31T11:20:00.374Z,39.03
2022-07-31T11:21:09.223Z,39.60
2022-07-31T11:22:01.327Z,39.19
2022-07-31T11:23:01.321Z,38.68
2022-07-31T11:24:03.085Z,38.58
2022-07-31T11:25:00.310Z,38.07
2022-07-31T11:26:00.295Z,37.76
2022-07-31T11:27:00.289Z,39.25
2022-07-31T11:28:00.290Z,37.90
2022-07-31T11:29:00.277Z,39.60
2022-07-31T11:30:04.165Z,38.95
2022-07-31T11:31:01.295Z,39.68
2022-07-31T11:32:00.268Z,40.00
2022-07-31T11:33:00.259Z,41.67
2022-07-31T11:34:00.245Z,41.20
2022-07-31T11:35:00.242Z,41.39
2022-07-31T11:36:00.259Z,41.41
2022-07-31T11:37:00.230Z,42.83
2022-07-31T11:38:00.231Z,42.36
2022-07-31T11:39:00.217Z,42.96
2022-07-31T11:40:00.232Z,41.69
2022-07-31T11:41:00.219Z,42.60
2022-07-31T11:42:00.203Z,42.60
2022-07-31T11:43:24.845Z,42.07
2022-07-31T11:44:02.193Z,41.55
2022-07-31T11:45:00.217Z,40.74
2022-07-31T11:46:00.174Z,40.90
2022-07-31T11:47:00.185Z,39.68
2022-07-31T11:48:11.879Z,39.47
2022-07-31T11:49:01.224Z,38.48
2022-07-31T11:50:00.264Z,39.01
2022-07-31T11:51:00.144Z,39.42
2022-07-31T11:52:00.125Z,41.51
2022-07-31T11:53:00.128Z,41.12
2022-07-31T11:54:00.144Z,41.31
2022-07-31T11:55:00.103Z,41.14
2022-07-31T11:56:00.129Z,40.94
2022-07-31T11:57:00.113Z,41.53
2022-07-31T11:58:00.100Z,41.46
2022-07-31T11:59:00.090Z,41.95
2022-07-31T12:00:00.085Z,41.24
2022-07-31T12:01:00.102Z,41.02
2022-07-31T12:02:00.079Z,40.80
2022-07-31T12:03:00.150Z,41.38
2022-07-31T12:04:08.350Z,41.31
2022-07-31T12:05:01.057Z,42.00
2022-07-31T12:06:00.071Z,41.33
2022-07-31T12:07:00.046Z,41.83
2022-07-31T12:08:00.030Z,41.04
2022-07-31T12:09:00.037Z,41.25
2022-07-31T12:10:03.538Z,41.57
2022-07-31T12:11:00.024Z,42.96
2022-07-31T12:12:00.018Z,41.77
2022-07-31T12:13:00.009Z,43.03
2022-07-31T12:13:59.997Z,40.94
2022-07-31T12:15:00.001Z,40.84
2022-07-31T12:16:00.008Z,42.10
2022-07-31T12:16:59.984Z,41.89
2022-07-31T12:17:59.977Z,41.86
2022-07-31T12:18:59.971Z,40.11
2022-07-31T12:19:59.967Z,41.71
2022-07-31T12:20:59.969Z,41.71
2022-07-31T12:21:59.965Z,40.94
2022-07-31T12:22:59.945Z,41.55
2022-07-31T12:23:59.944Z,42.26
2022-07-31T12:24:59.941Z,42.05
2022-07-31T12:25:59.938Z,41.65
2022-07-31T12:26:59.924Z,40.69
2022-07-31T12:27:59.915Z,42.36
2022-07-31T12:28:59.907Z,43.25
2022-07-31T12:29:59.893Z,43.33
2022-07-31T12:30:59.893Z,41.83
2022-07-31T12:31:59.894Z,41.51
2022-07-31T12:32:59.873Z,41.67
2022-07-31T12:33:59.880Z,39.97
2022-07-31T12:34:59.886Z,38.97
2022-07-31T12:35:59.861Z,38.79
2022-07-31T12:36:59.876Z,38.81
2022-07-31T12:37:59.857Z,39.78
2022-07-31T12:38:59.852Z,39.56
2022-07-31T12:40:01.518Z,39.25
2022-07-31T12:40:59.835Z,38.15
2022-07-31T12:41:59.844Z,38.34
2022-07-31T12:42:59.837Z,39.01
2022-07-31T12:43:59.825Z,38.52
2022-07-31T12:44:59.811Z,38.34
2022-07-31T12:45:59.821Z,38.68
2022-07-31T12:46:59.808Z,38.99
2022-07-31T12:47:59.789Z,40.41
2022-07-31T12:48:59.845Z,41.31
2022-07-31T12:49:59.800Z,41.24
2022-07-31T12:50:59.781Z,41.83
2022-07-31T12:51:59.784Z,40.55
2022-07-31T12:52:59.770Z,39.84